sensor_id;sensor_type;location;lat;lon;timestamp;P1;durP1;ratioP1;P2;durP2;ratioP2
7051;SDS011;3567;52.444;13.556;2022-11-13T00:00:01;30.63;;;20.50;;
7051;SDS011;3567;52.444;13.556;2022-11-13T00:02:26;27.52;;;21.70;;
7051;SDS011;3567;52.444;13.556;2022-11-13T00:04:52;28.77;;;20.42;;
7051;SDS011;3567;52.444;13.556;2022-11-13T00:07:17;25.73;;;19.48;;
7051;SDS011;3567;52.444;13.556;2022-11-13T00:09:42;28.02;;;20.65;;
7051;SDS011;3567;52.444;13.556;2022-11-13T00:12:07;28.67;;;21.15;;
7051;SDS011;3567;52.444;13.556;2022-11-13T00:14:33;30.52;;;21.48;;
7051;SDS011;3567;52.444;13.556;2022-11-13T00:16:58;27.63;;;20.60;;
7051;SDS011;3567;52.444;13.556;2022-11-13T00:19:24;27.25;;;20.55;;
7051;SDS011;3567;52.444;13.556;2022-11-13T00:21:49;23.73;;;18.08;;
7051;SDS011;3567;52.444;13.556;2022-11-13T00:24:14;30.52;;;20.80;;
7051;SDS011;3567;52.444;13.556;2022-11-13T00:26:39;28.23;;;20.27;;
7051;SDS011;3567;52.444;13.556;2022-11-13T00:29:05;36.90;;;24.27;;
7051;SDS011;3567;52.444;13.556;2022-11-13T00:31:30;28.52;;;22.08;;
7051;SDS011;3567;52.444;13.556;2022-11-13T00:33:58;26.90;;;20.38;;
7051;SDS011;3567;52.444;13.556;2022-11-13T00:36:25;24.38;;;19.17;;
7051;SDS011;3567;52.444;13.556;2022-11-13T00:38:52;31.95;;;23.13;;
7051;SDS011;3567;52.444;13.556;2022-11-13T00:41:19;25.55;;;19.88;;
7051;SDS011;3567;52.444;13.556;2022-11-13T00:43:45;30.08;;;22.40;;
7051;SDS011;3567;52.444;13.556;2022-11-13T00:46:10;31.10;;;23.08;;
7051;SDS011;3567;52.444;13.556;2022-11-13T00:48:35;32.67;;;22.58;;
7051;SDS011;3567;52.444;13.556;2022-11-13T00:51:01;30.83;;;22.60;;
7051;SDS011;3567;52.444;13.556;2022-11-13T00:53:27;28.55;;;20.48;;
7051;SDS011;3567;52.444;13.556;2022-11-13T00:55:53;30.48;;;21.70;;
7051;SDS011;3567;52.444;13.556;2022-11-13T00:58:18;35.40;;;21.35;;
7051;SDS011;3567;52.444;13.556;2022-11-13T01:00:44;24.83;;;18.77;;
7051;SDS011;3567;52.444;13.556;2022-11-13T01:03:11;29.67;;;22.13;;
7051;SDS011;3567;52.444;13.556;2022-11-13T01:05:38;30.35;;;21.10;;
7051;SDS011;3567;52.444;13.556;2022-11-13T01:08:05;33.60;;;21.88;;
7051;SDS011;3567;52.444;13.556;2022-11-13T01:10:32;26.55;;;21.50;;
7051;SDS011;3567;52.444;13.556;2022-11-13T01:12:58;26.00;;;20.25;;
7051;SDS011;3567;52.444;13.556;2022-11-13T01:15:23;28.20;;;20.45;;
7051;SDS011;3567;52.444;13.556;2022-11-13T01:17:49;28.08;;;19.77;;
7051;SDS011;3567;52.444;13.556;2022-11-13T01:20:15;28.92;;;20.15;;
7051;SDS011;3567;52.444;13.556;2022-11-13T01:22:41;32.65;;;23.58;;
7051;SDS011;3567;52.444;13.556;2022-11-13T01:25:06;27.63;;;21.30;;
7051;SDS011;3567;52.444;13.556;2022-11-13T01:27:34;32.17;;;22.63;;
7051;SDS011;3567;52.444;13.556;2022-11-13T01:30:00;30.38;;;22.23;;
7051;SDS011;3567;52.444;13.556;2022-11-13T01:32:25;26.90;;;22.13;;
7051;SDS011;3567;52.444;13.556;2022-11-13T01:34:51;29.33;;;22.58;;
7051;SDS011;3567;52.444;13.556;2022-11-13T01:37:16;25.55;;;19.92;;
7051;SDS011;3567;52.444;13.556;2022-11-13T01:39:41;30.75;;;21.25;;
7051;SDS011;3567;52.444;13.556;2022-11-13T01:42:07;26.05;;;21.27;;
7051;SDS011;3567;52.444;13.556;2022-11-13T01:44:51;25.80;;;21.25;;
7051;SDS011;3567;52.444;13.556;2022-11-13T01:47:17;32.25;;;23.92;;
7051;SDS011;3567;52.444;13.556;2022-11-13T01:49:44;27.20;;;22.17;;
7051;SDS011;3567;52.444;13.556;2022-11-13T01:52:14;26.65;;;22.08;;
7051;SDS011;3567;52.444;13.556;2022-11-13T01:54:47;29.08;;;21.23;;
7051;SDS011;3567;52.444;13.556;2022-11-13T01:57:16;22.20;;;19.75;;
7051;SDS011;3567;52.444;13.556;2022-11-13T01:59:44;25.23;;;18.95;;
7051;SDS011;3567;52.444;13.556;2022-11-13T02:02:13;24.20;;;19.42;;
7051;SDS011;3567;52.444;13.556;2022-11-13T02:04:39;22.02;;;18.73;;
7051;SDS011;3567;52.444;13.556;2022-11-13T02:07:06;19.35;;;17.35;;
7051;SDS011;3567;52.444;13.556;2022-11-13T02:09:38;21.98;;;18.52;;
7051;SDS011;3567;52.444;13.556;2022-11-13T02:12:05;18.85;;;16.85;;
7051;SDS011;3567;52.444;13.556;2022-11-13T02:14:32;20.55;;;17.38;;
7051;SDS011;3567;52.444;13.556;2022-11-13T02:17:01;19.40;;;17.15;;
7051;SDS011;3567;52.444;13.556;2022-11-13T02:19:32;22.05;;;16.88;;
7051;SDS011;3567;52.444;13.556;2022-11-13T02:22:12;19.98;;;16.35;;
7051;SDS011;3567;52.444;13.556;2022-11-13T02:24:49;20.45;;;16.45;;
7051;SDS011;3567;52.444;13.556;2022-11-13T02:30:10;17.50;;;15.80;;
7051;SDS011;3567;52.444;13.556;2022-11-13T02:32:44;16.73;;;15.07;;
7051;SDS011;3567;52.444;13.556;2022-11-13T02:35:12;21.35;;;13.88;;
7051;SDS011;3567;52.444;13.556;2022-11-13T02:37:39;18.45;;;14.05;;
7051;SDS011;3567;52.444;13.556;2022-11-13T02:40:05;16.42;;;13.15;;
7051;SDS011;3567;52.444;13.556;2022-11-13T02:42:31;17.45;;;13.85;;
7051;SDS011;3567;52.444;13.556;2022-11-13T02:44:56;17.80;;;13.80;;
7051;SDS011;3567;52.444;13.556;2022-11-13T02:47:21;16.52;;;14.38;;
7051;SDS011;3567;52.444;13.556;2022-11-13T02:49:47;13.85;;;12.23;;
7051;SDS011;3567;52.444;13.556;2022-11-13T02:52:12;16.55;;;11.80;;
7051;SDS011;3567;52.444;13.556;2022-11-13T02:54:38;14.60;;;11.32;;
7051;SDS011;3567;52.444;13.556;2022-11-13T02:57:03;12.20;;;11.10;;
7051;SDS011;3567;52.444;13.556;2022-11-13T02:59:28;16.25;;;11.18;;
7051;SDS011;3567;52.444;13.556;2022-11-13T03:01:54;15.30;;;10.38;;
7051;SDS011;3567;52.444;13.556;2022-11-13T03:04:19;16.33;;;11.32;;
7051;SDS011;3567;52.444;13.556;2022-11-13T03:06:44;13.93;;;11.10;;
7051;SDS011;3567;52.444;13.556;2022-11-13T03:09:10;10.85;;;9.55;;
7051;SDS011;3567;52.444;13.556;2022-11-13T03:11:36;15.63;;;10.60;;
7051;SDS011;3567;52.444;13.556;2022-11-13T03:14:01;12.60;;;10.10;;
7051;SDS011;3567;52.444;13.556;2022-11-13T03:16:26;9.95;;;8.88;;
7051;SDS011;3567;52.444;13.556;2022-11-13T03:18:53;10.40;;;8.27;;
7051;SDS011;3567;52.444;13.556;2022-11-13T03:21:19;12.05;;;8.40;;
7051;SDS011;3567;52.444;13.556;2022-11-13T03:23:44;9.73;;;8.63;;
7051;SDS011;3567;52.444;13.556;2022-11-13T03:26:11;9.63;;;8.50;;
7051;SDS011;3567;52.444;13.556;2022-11-13T03:28:38;10.68;;;8.63;;
7051;SDS011;3567;52.444;13.556;2022-11-13T03:31:03;9.88;;;8.77;;
7051;SDS011;3567;52.444;13.556;2022-11-13T03:33:29;13.25;;;10.35;;
7051;SDS011;3567;52.444;13.556;2022-11-13T03:35:55;10.60;;;9.52;;
7051;SDS011;3567;52.444;13.556;2022-11-13T03:38:20;14.07;;;9.77;;
7051;SDS011;3567;52.444;13.556;2022-11-13T03:40:46;10.55;;;9.50;;
7051;SDS011;3567;52.444;13.556;2022-11-13T03:43:12;11.27;;;10.00;;
7051;SDS011;3567;52.444;13.556;2022-11-13T03:45:38;11.98;;;9.40;;
7051;SDS011;3567;52.444;13.556;2022-11-13T03:48:03;11.00;;;9.98;;
7051;SDS011;3567;52.444;13.556;2022-11-13T03:50:29;13.30;;;10.15;;
7051;SDS011;3567;52.444;13.556;2022-11-13T03:52:54;12.95;;;10.75;;
7051;SDS011;3567;52.444;13.556;2022-11-13T03:55:20;15.18;;;10.25;;
7051;SDS011;3567;52.444;13.556;2022-11-13T03:57:45;12.32;;;10.80;;
7051;SDS011;3567;52.444;13.556;2022-11-13T04:00:11;10.95;;;9.85;;
7051;SDS011;3567;52.444;13.556;2022-11-13T04:02:38;11.85;;;10.48;;
7051;SDS011;3567;52.444;13.556;2022-11-13T04:05:04;17.95;;;10.07;;
7051;SDS011;3567;52.444;13.556;2022-11-13T04:07:29;14.55;;;11.55;;
7051;SDS011;3567;52.444;13.556;2022-11-13T04:09:55;12.75;;;11.13;;
7051;SDS011;3567;52.444;13.556;2022-11-13T04:12:20;11.10;;;9.65;;
7051;SDS011;3567;52.444;13.556;2022-11-13T04:14:45;11.57;;;10.27;;
7051;SDS011;3567;52.444;13.556;2022-11-13T04:17:11;13.00;;;10.95;;
7051;SDS011;3567;52.444;13.556;2022-11-13T04:19:36;12.45;;;10.48;;
7051;SDS011;3567;52.444;13.556;2022-11-13T04:22:01;11.18;;;9.65;;
7051;SDS011;3567;52.444;13.556;2022-11-13T04:24:27;12.05;;;10.57;;
7051;SDS011;3567;52.444;13.556;2022-11-13T04:26:52;12.32;;;10.55;;
7051;SDS011;3567;52.444;13.556;2022-11-13T04:29:17;12.48;;;10.15;;
7051;SDS011;3567;52.444;13.556;2022-11-13T04:31:43;13.23;;;10.50;;
7051;SDS011;3567;52.444;13.556;2022-11-13T04:34:08;12.40;;;10.65;;
7051;SDS011;3567;52.444;13.556;2022-11-13T04:36:33;11.65;;;9.70;;
7051;SDS011;3567;52.444;13.556;2022-11-13T04:38:59;11.38;;;10.13;;
7051;SDS011;3567;52.444;13.556;2022-11-13T04:41:24;13.77;;;10.90;;
7051;SDS011;3567;52.444;13.556;2022-11-13T04:44:08;13.07;;;9.80;;
7051;SDS011;3567;52.444;13.556;2022-11-13T04:46:33;12.48;;;10.50;;
7051;SDS011;3567;52.444;13.556;2022-11-13T04:48:58;12.82;;;10.43;;
7051;SDS011;3567;52.444;13.556;2022-11-13T04:51:24;12.32;;;9.98;;
7051;SDS011;3567;52.444;13.556;2022-11-13T04:53:49;14.85;;;10.85;;
7051;SDS011;3567;52.444;13.556;2022-11-13T04:56:14;15.52;;;11.80;;
7051;SDS011;3567;52.444;13.556;2022-11-13T04:58:40;11.10;;;9.90;;
7051;SDS011;3567;52.444;13.556;2022-11-13T05:01:05;15.82;;;10.85;;
7051;SDS011;3567;52.444;13.556;2022-11-13T05:03:31;11.32;;;10.05;;
7051;SDS011;3567;52.444;13.556;2022-11-13T05:06:00;12.85;;;10.73;;
7051;SDS011;3567;52.444;13.556;2022-11-13T05:08:30;12.52;;;10.98;;
7051;SDS011;3567;52.444;13.556;2022-11-13T05:10:55;13.30;;;10.90;;
7051;SDS011;3567;52.444;13.556;2022-11-13T05:13:21;14.23;;;9.98;;
7051;SDS011;3567;52.444;13.556;2022-11-13T05:15:46;12.90;;;10.35;;
7051;SDS011;3567;52.444;13.556;2022-11-13T05:18:11;11.07;;;9.95;;
7051;SDS011;3567;52.444;13.556;2022-11-13T05:20:38;14.65;;;10.95;;
7051;SDS011;3567;52.444;13.556;2022-11-13T05:23:03;12.95;;;10.65;;
7051;SDS011;3567;52.444;13.556;2022-11-13T05:25:29;12.40;;;10.13;;
7051;SDS011;3567;52.444;13.556;2022-11-13T05:27:56;11.90;;;10.48;;
7051;SDS011;3567;52.444;13.556;2022-11-13T05:30:22;13.20;;;11.80;;
7051;SDS011;3567;52.444;13.556;2022-11-13T05:32:47;14.68;;;11.65;;
7051;SDS011;3567;52.444;13.556;2022-11-13T05:35:12;14.27;;;12.82;;
7051;SDS011;3567;52.444;13.556;2022-11-13T05:37:38;13.40;;;11.07;;
7051;SDS011;3567;52.444;13.556;2022-11-13T05:40:04;14.05;;;12.60;;
7051;SDS011;3567;52.444;13.556;2022-11-13T05:42:30;13.23;;;11.77;;
7051;SDS011;3567;52.444;13.556;2022-11-13T05:44:55;15.23;;;13.27;;
7051;SDS011;3567;52.444;13.556;2022-11-13T05:47:20;13.85;;;12.10;;
7051;SDS011;3567;52.444;13.556;2022-11-13T05:49:46;13.73;;;12.27;;
7051;SDS011;3567;52.444;13.556;2022-11-13T05:52:11;15.50;;;11.85;;
7051;SDS011;3567;52.444;13.556;2022-11-13T05:54:36;15.93;;;12.68;;
7051;SDS011;3567;52.444;13.556;2022-11-13T05:57:02;13.23;;;11.77;;
7051;SDS011;3567;52.444;13.556;2022-11-13T05:59:28;13.98;;;12.05;;
7051;SDS011;3567;52.444;13.556;2022-11-13T06:01:53;16.45;;;12.95;;
7051;SDS011;3567;52.444;13.556;2022-11-13T06:04:18;18.23;;;13.48;;
7051;SDS011;3567;52.444;13.556;2022-11-13T06:06:44;14.02;;;12.63;;
7051;SDS011;3567;52.444;13.556;2022-11-13T06:09:12;14.35;;;12.85;;
7051;SDS011;3567;52.444;13.556;2022-11-13T06:11:38;17.63;;;14.30;;
7051;SDS011;3567;52.444;13.556;2022-11-13T06:14:04;17.15;;;15.48;;
7051;SDS011;3567;52.444;13.556;2022-11-13T06:16:32;17.95;;;14.23;;
7051;SDS011;3567;52.444;13.556;2022-11-13T06:19:00;15.85;;;14.35;;
7051;SDS011;3567;52.444;13.556;2022-11-13T06:21:28;15.35;;;13.98;;
7051;SDS011;3567;52.444;13.556;2022-11-13T06:23:56;23.38;;;17.80;;
7051;SDS011;3567;52.444;13.556;2022-11-13T06:26:23;18.77;;;16.98;;
7051;SDS011;3567;52.444;13.556;2022-11-13T06:28:50;19.27;;;17.23;;
7051;SDS011;3567;52.444;13.556;2022-11-13T06:31:17;23.70;;;18.90;;
7051;SDS011;3567;52.444;13.556;2022-11-13T06:33:44;22.02;;;17.67;;
7051;SDS011;3567;52.444;13.556;2022-11-13T06:36:17;20.77;;;17.98;;
7051;SDS011;3567;52.444;13.556;2022-11-13T06:38:44;25.77;;;18.67;;
7051;SDS011;3567;52.444;13.556;2022-11-13T06:41:12;25.35;;;22.08;;
7051;SDS011;3567;52.444;13.556;2022-11-13T06:43:39;23.75;;;21.40;;
7051;SDS011;3567;52.444;13.556;2022-11-13T06:46:07;24.52;;;21.95;;
7051;SDS011;3567;52.444;13.556;2022-11-13T06:48:37;24.77;;;22.13;;
7051;SDS011;3567;52.444;13.556;2022-11-13T06:51:03;23.55;;;21.10;;
7051;SDS011;3567;52.444;13.556;2022-11-13T06:53:31;25.40;;;20.73;;
7051;SDS011;3567;52.444;13.556;2022-11-13T06:55:56;24.80;;;21.27;;
7051;SDS011;3567;52.444;13.556;2022-11-13T06:58:22;26.20;;;20.48;;
7051;SDS011;3567;52.444;13.556;2022-11-13T07:00:48;24.60;;;21.40;;
7051;SDS011;3567;52.444;13.556;2022-11-13T07:03:15;26.48;;;20.77;;
7051;SDS011;3567;52.444;13.556;2022-11-13T07:05:41;21.55;;;19.20;;
7051;SDS011;3567;52.444;13.556;2022-11-13T07:08:07;20.08;;;18.00;;
7051;SDS011;3567;52.444;13.556;2022-11-13T07:10:32;24.67;;;18.92;;
7051;SDS011;3567;52.444;13.556;2022-11-13T07:12:58;24.73;;;18.48;;
7051;SDS011;3567;52.444;13.556;2022-11-13T07:15:24;24.67;;;17.33;;
7051;SDS011;3567;52.444;13.556;2022-11-13T07:17:49;18.88;;;16.88;;
7051;SDS011;3567;52.444;13.556;2022-11-13T07:20:15;20.08;;;18.00;;
7051;SDS011;3567;52.444;13.556;2022-11-13T07:22:40;24.40;;;17.50;;
7051;SDS011;3567;52.444;13.556;2022-11-13T07:25:05;21.77;;;17.42;;
7051;SDS011;3567;52.444;13.556;2022-11-13T07:27:31;20.35;;;17.90;;
7051;SDS011;3567;52.444;13.556;2022-11-13T07:29:57;24.60;;;17.95;;
7051;SDS011;3567;52.444;13.556;2022-11-13T07:32:22;23.60;;;18.45;;
7051;SDS011;3567;52.444;13.556;2022-11-13T07:34:47;23.50;;;17.05;;
7051;SDS011;3567;52.444;13.556;2022-11-13T07:37:13;22.08;;;16.88;;
7051;SDS011;3567;52.444;13.556;2022-11-13T07:39:38;20.20;;;17.13;;
7051;SDS011;3567;52.444;13.556;2022-11-13T07:42:03;23.10;;;16.48;;
7051;SDS011;3567;52.444;13.556;2022-11-13T07:44:29;20.88;;;17.20;;
7051;SDS011;3567;52.444;13.556;2022-11-13T07:46:54;22.00;;;17.58;;
7051;SDS011;3567;52.444;13.556;2022-11-13T07:49:19;20.85;;;17.15;;
7051;SDS011;3567;52.444;13.556;2022-11-13T07:51:45;22.85;;;17.42;;
7051;SDS011;3567;52.444;13.556;2022-11-13T07:54:10;27.88;;;19.98;;
7051;SDS011;3567;52.444;13.556;2022-11-13T07:56:35;25.48;;;19.88;;
7051;SDS011;3567;52.444;13.556;2022-11-13T07:59:01;22.38;;;17.90;;
7051;SDS011;3567;52.444;13.556;2022-11-13T08:01:26;21.90;;;18.10;;
7051;SDS011;3567;52.444;13.556;2022-11-13T08:03:51;24.65;;;18.77;;
7051;SDS011;3567;52.444;13.556;2022-11-13T08:06:17;23.42;;;18.15;;
7051;SDS011;3567;52.444;13.556;2022-11-13T08:08:42;22.58;;;17.98;;
7051;SDS011;3567;52.444;13.556;2022-11-13T08:11:10;21.15;;;17.10;;
7051;SDS011;3567;52.444;13.556;2022-11-13T08:13:39;21.05;;;15.90;;
7051;SDS011;3567;52.444;13.556;2022-11-13T08:16:05;27.15;;;18.35;;
7051;SDS011;3567;52.444;13.556;2022-11-13T08:18:31;20.83;;;16.88;;
7051;SDS011;3567;52.444;13.556;2022-11-13T08:20:58;24.02;;;17.50;;
7051;SDS011;3567;52.444;13.556;2022-11-13T08:23:28;21.45;;;17.38;;
7051;SDS011;3567;52.444;13.556;2022-11-13T08:25:54;22.05;;;17.10;;
7051;SDS011;3567;52.444;13.556;2022-11-13T08:28:19;23.63;;;16.92;;
7051;SDS011;3567;52.444;13.556;2022-11-13T08:30:45;20.23;;;17.67;;
7051;SDS011;3567;52.444;13.556;2022-11-13T08:33:10;22.85;;;17.63;;
7051;SDS011;3567;52.444;13.556;2022-11-13T08:35:36;24.83;;;18.40;;
7051;SDS011;3567;52.444;13.556;2022-11-13T08:38:02;24.95;;;17.65;;
7051;SDS011;3567;52.444;13.556;2022-11-13T08:40:29;19.02;;;16.70;;
7051;SDS011;3567;52.444;13.556;2022-11-13T08:43:01;23.95;;;16.92;;
7051;SDS011;3567;52.444;13.556;2022-11-13T08:45:28;21.60;;;16.60;;
7051;SDS011;3567;52.444;13.556;2022-11-13T08:47:58;18.55;;;16.00;;
7051;SDS011;3567;52.444;13.556;2022-11-13T08:50:24;18.50;;;15.85;;
7051;SDS011;3567;52.444;13.556;2022-11-13T08:52:53;22.40;;;15.25;;
7051;SDS011;3567;52.444;13.556;2022-11-13T08:55:19;20.45;;;16.20;;
7051;SDS011;3567;52.444;13.556;2022-11-13T08:57:48;14.93;;;13.43;;
7051;SDS011;3567;52.444;13.556;2022-11-13T09:00:33;14.85;;;13.35;;
7051;SDS011;3567;52.444;13.556;2022-11-13T09:02:59;19.02;;;14.02;;
7051;SDS011;3567;52.444;13.556;2022-11-13T09:05:25;16.27;;;13.68;;
7051;SDS011;3567;52.444;13.556;2022-11-13T09:07:54;15.63;;;13.65;;
7051;SDS011;3567;52.444;13.556;2022-11-13T09:10:22;16.90;;;13.63;;
7051;SDS011;3567;52.444;13.556;2022-11-13T09:12:47;19.05;;;12.43;;
7051;SDS011;3567;52.444;13.556;2022-11-13T09:15:13;14.38;;;12.00;;
7051;SDS011;3567;52.444;13.556;2022-11-13T09:17:38;16.42;;;13.45;;
7051;SDS011;3567;52.444;13.556;2022-11-13T09:20:04;14.00;;;12.52;;
7051;SDS011;3567;52.444;13.556;2022-11-13T09:22:33;16.45;;;12.95;;
7051;SDS011;3567;52.444;13.556;2022-11-13T09:24:59;15.10;;;12.70;;
7051;SDS011;3567;52.444;13.556;2022-11-13T09:27:24;18.33;;;12.02;;
7051;SDS011;3567;52.444;13.556;2022-11-13T09:29:50;13.98;;;11.55;;
7051;SDS011;3567;52.444;13.556;2022-11-13T09:32:15;16.00;;;11.93;;
7051;SDS011;3567;52.444;13.556;2022-11-13T09:34:41;13.02;;;11.60;;
7051;SDS011;3567;52.444;13.556;2022-11-13T09:37:06;14.23;;;10.52;;
7051;SDS011;3567;52.444;13.556;2022-11-13T09:39:32;17.23;;;11.20;;
7051;SDS011;3567;52.444;13.556;2022-11-13T09:41:59;13.02;;;10.00;;
7051;SDS011;3567;52.444;13.556;2022-11-13T09:44:39;12.85;;;10.90;;
7051;SDS011;3567;52.444;13.556;2022-11-13T09:47:14;14.43;;;10.32;;
7051;SDS011;3567;52.444;13.556;2022-11-13T09:50:08;12.30;;;10.10;;
7051;SDS011;3567;52.444;13.556;2022-11-13T09:52:43;12.82;;;9.80;;
7051;SDS011;3567;52.444;13.556;2022-11-13T09:55:15;14.93;;;10.23;;
7051;SDS011;3567;52.444;13.556;2022-11-13T10:00:27;15.27;;;9.90;;
7051;SDS011;3567;52.444;13.556;2022-11-13T10:03:00;10.95;;;9.77;;
7051;SDS011;3567;52.444;13.556;2022-11-13T10:11:15;12.18;;;10.82;;
7051;SDS011;3567;52.444;13.556;2022-11-13T10:13:47;11.95;;;10.18;;
7051;SDS011;3567;52.444;13.556;2022-11-13T10:21:41;11.63;;;10.50;;
7051;SDS011;3567;52.444;13.556;2022-11-13T10:24:23;12.07;;;9.70;;
7051;SDS011;3567;52.444;13.556;2022-11-13T10:26:54;12.85;;;10.07;;
7051;SDS011;3567;52.444;13.556;2022-11-13T10:29:22;10.73;;;9.57;;
7051;SDS011;3567;52.444;13.556;2022-11-13T10:31:51;11.00;;;9.77;;
7051;SDS011;3567;52.444;13.556;2022-11-13T10:34:17;11.25;;;10.15;;
7051;SDS011;3567;52.444;13.556;2022-11-13T10:39:20;10.98;;;9.93;;
7051;SDS011;3567;52.444;13.556;2022-11-13T10:41:47;13.95;;;10.05;;
7051;SDS011;3567;52.444;13.556;2022-11-13T10:44:19;12.10;;;10.88;;
7051;SDS011;3567;52.444;13.556;2022-11-13T10:47:04;12.35;;;10.63;;
7051;SDS011;3567;52.444;13.556;2022-11-13T10:49:40;12.55;;;10.70;;
7051;SDS011;3567;52.444;13.556;2022-11-13T10:52:22;13.30;;;11.32;;
7051;SDS011;3567;52.444;13.556;2022-11-13T10:55:12;11.90;;;10.70;;
7051;SDS011;3567;52.444;13.556;2022-11-13T10:58:09;13.48;;;10.82;;
7051;SDS011;3567;52.444;13.556;2022-11-13T11:00:37;12.07;;;10.52;;
7051;SDS011;3567;52.444;13.556;2022-11-13T11:03:12;12.25;;;11.02;;
7051;SDS011;3567;52.444;13.556;2022-11-13T11:08:36;12.57;;;11.27;;
7051;SDS011;3567;52.444;13.556;2022-11-13T11:11:06;13.75;;;11.48;;
7051;SDS011;3567;52.444;13.556;2022-11-13T11:14:03;12.23;;;10.93;;
7051;SDS011;3567;52.444;13.556;2022-11-13T11:16:50;12.50;;;11.20;;
7051;SDS011;3567;52.444;13.556;2022-11-13T11:19:16;11.23;;;10.05;;
7051;SDS011;3567;52.444;13.556;2022-11-13T11:21:45;12.68;;;10.68;;
7051;SDS011;3567;52.444;13.556;2022-11-13T11:27:07;12.85;;;11.63;;
7051;SDS011;3567;52.444;13.556;2022-11-13T11:30:03;14.60;;;10.82;;
7051;SDS011;3567;52.444;13.556;2022-11-13T11:32:39;13.70;;;10.93;;
7051;SDS011;3567;52.444;13.556;2022-11-13T11:35:32;13.55;;;11.02;;
7051;SDS011;3567;52.444;13.556;2022-11-13T11:38:08;14.57;;;9.88;;
7051;SDS011;3567;52.444;13.556;2022-11-13T11:41:16;11.57;;;10.10;;
7051;SDS011;3567;52.444;13.556;2022-11-13T11:44:20;11.95;;;10.65;;
7051;SDS011;3567;52.444;13.556;2022-11-13T11:46:50;13.57;;;11.40;;
7051;SDS011;3567;52.444;13.556;2022-11-13T11:49:16;13.27;;;11.82;;
7051;SDS011;3567;52.444;13.556;2022-11-13T11:57:42;12.65;;;11.30;;
7051;SDS011;3567;52.444;13.556;2022-11-13T12:00:15;12.73;;;11.45;;
7051;SDS011;3567;52.444;13.556;2022-11-13T12:05:49;13.38;;;11.98;;
7051;SDS011;3567;52.444;13.556;2022-11-13T12:14:03;15.20;;;13.05;;
7051;SDS011;3567;52.444;13.556;2022-11-13T12:16:39;15.77;;;13.07;;
7051;SDS011;3567;52.444;13.556;2022-11-13T12:30:21;14.70;;;12.40;;
7051;SDS011;3567;52.444;13.556;2022-11-13T12:35:35;14.38;;;12.85;;
7051;SDS011;3567;52.444;13.556;2022-11-13T12:38:17;15.32;;;12.60;;
7051;SDS011;3567;52.444;13.556;2022-11-13T12:46:42;13.57;;;12.10;;
7051;SDS011;3567;52.444;13.556;2022-11-13T12:49:24;13.73;;;12.13;;
7051;SDS011;3567;52.444;13.556;2022-11-13T12:51:53;15.95;;;13.18;;
7051;SDS011;3567;52.444;13.556;2022-11-13T12:54:24;12.88;;;11.55;;
7051;SDS011;3567;52.444;13.556;2022-11-13T12:56:50;13.40;;;11.85;;
7051;SDS011;3567;52.444;13.556;2022-11-13T13:01:44;13.13;;;11.73;;
7051;SDS011;3567;52.444;13.556;2022-11-13T13:04:26;14.85;;;11.32;;
7051;SDS011;3567;52.444;13.556;2022-11-13T13:15:35;14.00;;;11.18;;
7051;SDS011;3567;52.444;13.556;2022-11-13T13:18:11;12.57;;;11.27;;
7051;SDS011;3567;52.444;13.556;2022-11-13T13:20:57;13.80;;;11.43;;
7051;SDS011;3567;52.444;13.556;2022-11-13T13:23:28;13.52;;;11.02;;
7051;SDS011;3567;52.444;13.556;2022-11-13T13:26:22;13.25;;;11.45;;
7051;SDS011;3567;52.444;13.556;2022-11-13T13:28:50;13.60;;;10.98;;
7051;SDS011;3567;52.444;13.556;2022-11-13T13:33:55;16.02;;;12.98;;
7051;SDS011;3567;52.444;13.556;2022-11-13T13:36:38;16.90;;;13.10;;
7051;SDS011;3567;52.444;13.556;2022-11-13T13:50:14;15.10;;;13.02;;
7051;SDS011;3567;52.444;13.556;2022-11-13T13:52:42;13.45;;;11.80;;
7051;SDS011;3567;52.444;13.556;2022-11-13T13:55:14;12.98;;;11.35;;
7051;SDS011;3567;52.444;13.556;2022-11-13T13:57:43;13.23;;;11.38;;
7051;SDS011;3567;52.444;13.556;2022-11-13T14:00:10;13.73;;;11.32;;
7051;SDS011;3567;52.444;13.556;2022-11-13T14:02:43;13.18;;;11.30;;
7051;SDS011;3567;52.444;13.556;2022-11-13T14:05:31;14.65;;;11.85;;
7051;SDS011;3567;52.444;13.556;2022-11-13T14:07:59;13.20;;;11.20;;
7051;SDS011;3567;52.444;13.556;2022-11-13T14:10:31;12.20;;;10.80;;
7051;SDS011;3567;52.444;13.556;2022-11-13T14:13:00;15.27;;;11.52;;
7051;SDS011;3567;52.444;13.556;2022-11-13T14:15:30;13.65;;;11.60;;
7051;SDS011;3567;52.444;13.556;2022-11-13T14:18:07;16.63;;;11.70;;
7051;SDS011;3567;52.444;13.556;2022-11-13T14:20:45;14.02;;;11.30;;
7051;SDS011;3567;52.444;13.556;2022-11-13T14:23:20;15.43;;;11.18;;
7051;SDS011;3567;52.444;13.556;2022-11-13T14:25:49;15.10;;;11.40;;
7051;SDS011;3567;52.444;13.556;2022-11-13T14:28:16;17.08;;;12.40;;
7051;SDS011;3567;52.444;13.556;2022-11-13T14:30:43;14.75;;;11.30;;
7051;SDS011;3567;52.444;13.556;2022-11-13T14:33:10;15.77;;;11.45;;
7051;SDS011;3567;52.444;13.556;2022-11-13T14:35:40;14.07;;;11.48;;
7051;SDS011;3567;52.444;13.556;2022-11-13T14:38:17;15.35;;;11.05;;
7051;SDS011;3567;52.444;13.556;2022-11-13T14:40:45;11.82;;;10.52;;
7051;SDS011;3567;52.444;13.556;2022-11-13T14:43:14;14.40;;;11.20;;
7051;SDS011;3567;52.444;13.556;2022-11-13T14:45:51;12.82;;;10.90;;
7051;SDS011;3567;52.444;13.556;2022-11-13T14:48:20;12.60;;;10.60;;
7051;SDS011;3567;52.444;13.556;2022-11-13T14:50:49;16.17;;;11.27;;
7051;SDS011;3567;52.444;13.556;2022-11-13T14:53:32;13.77;;;11.38;;
7051;SDS011;3567;52.444;13.556;2022-11-13T14:56:07;12.93;;;11.10;;
7051;SDS011;3567;52.444;13.556;2022-11-13T14:58:42;14.32;;;11.25;;
7051;SDS011;3567;52.444;13.556;2022-11-13T15:01:13;15.50;;;10.68;;
7051;SDS011;3567;52.444;13.556;2022-11-13T15:03:40;14.13;;;11.77;;
7051;SDS011;3567;52.444;13.556;2022-11-13T15:06:10;13.95;;;11.48;;
7051;SDS011;3567;52.444;13.556;2022-11-13T15:08:38;13.43;;;11.65;;
7051;SDS011;3567;52.444;13.556;2022-11-13T15:11:04;15.23;;;11.50;;
7051;SDS011;3567;52.444;13.556;2022-11-13T15:13:29;15.20;;;12.00;;
7051;SDS011;3567;52.444;13.556;2022-11-13T15:15:55;18.75;;;12.52;;
7051;SDS011;3567;52.444;13.556;2022-11-13T15:18:20;15.02;;;13.38;;
7051;SDS011;3567;52.444;13.556;2022-11-13T15:20:45;15.32;;;12.05;;
7051;SDS011;3567;52.444;13.556;2022-11-13T15:23:11;16.77;;;12.00;;
7051;SDS011;3567;52.444;13.556;2022-11-13T15:25:39;13.13;;;11.20;;
7051;SDS011;3567;52.444;13.556;2022-11-13T15:28:05;17.25;;;12.50;;
7051;SDS011;3567;52.444;13.556;2022-11-13T15:30:30;14.75;;;12.55;;
7051;SDS011;3567;52.444;13.556;2022-11-13T15:32:56;15.38;;;13.02;;
7051;SDS011;3567;52.444;13.556;2022-11-13T15:35:23;15.75;;;14.05;;
7051;SDS011;3567;52.444;13.556;2022-11-13T15:37:49;16.85;;;13.43;;
7051;SDS011;3567;52.444;13.556;2022-11-13T15:40:14;16.70;;;13.60;;
7051;SDS011;3567;52.444;13.556;2022-11-13T15:42:41;17.27;;;13.55;;
7051;SDS011;3567;52.444;13.556;2022-11-13T15:45:11;18.50;;;13.52;;
7051;SDS011;3567;52.444;13.556;2022-11-13T15:47:38;17.38;;;13.52;;
7051;SDS011;3567;52.444;13.556;2022-11-13T15:50:04;17.85;;;14.63;;
7051;SDS011;3567;52.444;13.556;2022-11-13T15:52:31;18.48;;;14.85;;
7051;SDS011;3567;52.444;13.556;2022-11-13T15:54:59;22.02;;;14.93;;
7051;SDS011;3567;52.444;13.556;2022-11-13T15:57:28;17.17;;;14.93;;
7051;SDS011;3567;52.444;13.556;2022-11-13T15:59:54;18.60;;;15.40;;
7051;SDS011;3567;52.444;13.556;2022-11-13T16:02:20;20.45;;;15.30;;
7051;SDS011;3567;52.444;13.556;2022-11-13T16:04:45;20.33;;;15.43;;
7051;SDS011;3567;52.444;13.556;2022-11-13T16:07:12;19.83;;;15.20;;